createdAt,value
2019-05-06T00:00:26.765Z,4.92
2019-05-06T00:02:55.886Z,4.25
2019-05-06T00:05:25.584Z,5.70
2019-05-06T00:07:55.264Z,5.53
2019-05-06T00:10:30.039Z,4.92
2019-05-06T00:12:59.292Z,5.50
2019-05-06T00:15:28.795Z,4.67
2019-05-06T00:17:58.065Z,4.75
2019-05-06T00:20:27.213Z,5.03
2019-05-06T00:23:00.752Z,5.00
2019-05-06T00:25:59.988Z,4.70
2019-05-06T00:28:34.123Z,4.87
2019-05-06T00:31:12.342Z,6.35
2019-05-06T00:33:35.695Z,5.22
2019-05-06T00:36:04.954Z,5.30
2019-05-06T00:38:34.242Z,5.10
2019-05-06T00:41:06.139Z,5.53
2019-05-06T00:43:35.175Z,5.40
2019-05-06T00:46:04.785Z,4.90
2019-05-06T00:48:34.252Z,4.90
2019-05-06T00:51:04.563Z,5.35
2019-05-06T00:53:35.935Z,5.17
2019-05-06T00:56:05.322Z,4.55
2019-05-06T00:58:34.828Z,5.20
2019-05-06T01:01:04.814Z,4.60
2019-05-06T01:03:34.764Z,5.30
2019-05-06T01:06:04.339Z,4.78
2019-05-06T01:08:34.915Z,5.15
2019-05-06T01:11:05.940Z,5.20
2019-05-06T01:13:43.839Z,4.67
2019-05-06T01:16:15.742Z,5.37
2019-05-06T01:18:44.920Z,5.70
2019-05-06T01:21:14.570Z,6.00
2019-05-06T01:23:44.938Z,6.00
2019-05-06T01:26:15.355Z,7.40
2019-05-06T01:28:45.598Z,7.40
2019-05-06T01:31:15.038Z,8.10
2019-05-06T01:33:45.284Z,7.15
2019-05-06T01:36:14.818Z,7.10
2019-05-06T01:39:04.271Z,6.45
2019-05-06T01:41:57.225Z,6.08
2019-05-06T01:44:26.328Z,6.47
2019-05-06T01:46:55.505Z,5.85
2019-05-06T01:49:24.694Z,7.05
2019-05-06T01:51:54.605Z,6.62
2019-05-06T01:54:24.851Z,5.80
2019-05-06T01:56:54.759Z,7.37
2019-05-06T01:59:24.609Z,6.37
2019-05-06T02:02:00.618Z,5.67
2019-05-06T02:04:24.780Z,5.95
2019-05-06T02:06:54.583Z,6.00
2019-05-06T02:09:24.692Z,5.65
2019-05-06T02:11:54.092Z,6.03
2019-05-06T02:14:24.656Z,4.72
2019-05-06T02:16:54.590Z,6.22
2019-05-06T02:19:24.250Z,5.90
2019-05-06T02:22:13.601Z,5.08
2019-05-06T02:25:06.480Z,5.53
2019-05-06T02:27:35.697Z,5.87
2019-05-06T02:30:17.083Z,5.97
2019-05-06T02:32:55.406Z,6.25
2019-05-06T02:35:26.639Z,6.53
2019-05-06T02:37:55.953Z,5.40
2019-05-06T02:40:26.784Z,6.03
2019-05-06T02:42:56.236Z,5.78
2019-05-06T02:45:25.503Z,6.00
2019-05-06T02:48:13.929Z,6.87
2019-05-06T02:51:03.672Z,5.40
2019-05-06T02:53:33.584Z,7.05
2019-05-06T02:56:04.185Z,6.40
2019-05-06T02:58:33.728Z,5.67
2019-05-06T03:01:03.471Z,6.20
2019-05-06T03:03:33.821Z,5.42
2019-05-06T03:06:04.157Z,6.40
2019-05-06T03:08:34.159Z,5.70
2019-05-06T03:11:04.309Z,6.55
2019-05-06T03:13:34.233Z,6.37
2019-05-06T03:16:05.975Z,6.85
2019-05-06T03:18:34.154Z,6.58
2019-05-06T03:21:24.720Z,5.70
2019-05-06T03:23:58.789Z,6.47
2019-05-06T03:26:27.908Z,6.97
2019-05-06T03:28:56.864Z,7.20
2019-05-06T03:31:26.641Z,6.10
2019-05-06T03:34:21.975Z,7.25
2019-05-06T03:36:33.037Z,6.65
2019-05-06T03:38:57.305Z,7.25
2019-05-06T03:41:26.850Z,10.23
2019-05-06T03:43:56.076Z,6.90
2019-05-06T03:46:53.896Z,7.28
2019-05-06T03:49:23.839Z,7.30
2019-05-06T03:51:55.982Z,7.55
2019-05-06T03:54:24.296Z,7.90
2019-05-06T03:56:54.917Z,7.40
2019-05-06T03:59:25.068Z,10.15
2019-05-06T04:01:54.394Z,7.90
2019-05-06T04:04:23.469Z,8.85
2019-05-06T04:06:53.940Z,9.10
2019-05-06T04:09:23.975Z,9.10
2019-05-06T04:11:54.411Z,7.53
2019-05-06T04:14:24.156Z,8.80
2019-05-06T04:16:59.388Z,9.30
2019-05-06T04:19:33.466Z,8.88
2019-05-06T04:22:16.687Z,8.10
2019-05-06T04:25:07.879Z,9.48
2019-05-06T04:28:03.029Z,9.25
2019-05-06T04:30:33.447Z,9.15
2019-05-06T04:33:03.565Z,9.80
2019-05-06T04:35:33.781Z,9.40
2019-05-06T04:38:03.562Z,8.60
2019-05-06T04:40:33.213Z,10.45
2019-05-06T04:43:03.618Z,9.55
2019-05-06T04:45:33.882Z,9.60
2019-05-06T04:48:03.755Z,10.15
2019-05-06T04:50:33.470Z,10.60
2019-05-06T04:53:04.664Z,10.05
2019-05-06T04:55:35.249Z,11.28
2019-05-06T04:58:05.616Z,9.73
2019-05-06T05:00:36.022Z,10.72
2019-05-06T05:03:05.457Z,10.65
2019-05-06T05:05:34.949Z,10.05
2019-05-06T05:08:04.203Z,10.43
2019-05-06T05:10:42.994Z,9.30
2019-05-06T05:13:29.092Z,10.18
2019-05-06T05:16:10.068Z,9.50
2019-05-06T05:18:43.500Z,9.75
2019-05-06T05:21:12.841Z,9.90
2019-05-06T05:23:42.828Z,10.58
2019-05-06T05:26:12.302Z,9.75
2019-05-06T05:28:42.934Z,10.32
2019-05-06T05:31:12.418Z,8.85
2019-05-06T05:33:42.298Z,9.90
2019-05-06T05:36:12.376Z,8.93
2019-05-06T05:38:42.942Z,9.68
2019-05-06T05:41:12.412Z,10.63
2019-05-06T05:44:13.839Z,9.83
2019-05-06T05:46:43.881Z,10.13
2019-05-06T05:49:38.379Z,10.60
2019-05-06T05:52:08.421Z,10.40
2019-05-06T05:54:37.486Z,9.68
2019-05-06T05:57:06.615Z,9.95
2019-05-06T05:59:35.827Z,9.30
2019-05-06T06:02:04.971Z,10.18
2019-05-06T06:04:34.522Z,10.75
2019-05-06T06:07:04.182Z,9.68
2019-05-06T06:09:38.240Z,10.60
2019-05-06T06:12:08.777Z,10.00
2019-05-06T06:14:57.150Z,9.63
2019-05-06T06:17:44.643Z,10.38
2019-05-06T06:20:32.760Z,9.48
2019-05-06T06:23:08.189Z,8.68
2019-05-06T06:25:37.706Z,10.03
2019-05-06T06:28:07.146Z,9.83
2019-05-06T06:30:55.478Z,10.05
2019-05-06T06:33:25.087Z,10.03
2019-05-06T06:36:07.220Z,8.30
2019-05-06T06:38:52.687Z,9.55
2019-05-06T06:41:22.821Z,8.15
2019-05-06T06:43:55.805Z,9.15
2019-05-06T06:46:24.911Z,10.63
2019-05-06T06:48:53.989Z,10.15
2019-05-06T06:51:23.524Z,9.50
2019-05-06T06:53:53.334Z,8.50
2019-05-06T06:56:28.903Z,9.60
2019-05-06T06:59:22.586Z,8.85
2019-05-06T07:02:12.091Z,8.00
2019-05-06T07:04:52.601Z,9.45
2019-05-06T07:07:23.215Z,8.03
2019-05-06T07:09:52.668Z,9.70
2019-05-06T07:12:23.410Z,7.90
2019-05-06T07:15:02.233Z,9.25
2019-05-06T07:17:32.846Z,9.13
2019-05-06T07:20:05.156Z,7.80
2019-05-06T07:22:37.318Z,7.90
2019-05-06T07:25:08.453Z,8.23
2019-05-06T07:27:37.531Z,8.10
2019-05-06T07:30:07.628Z,8.10
2019-05-06T07:32:36.831Z,8.63
2019-05-06T07:35:06.410Z,7.30
2019-05-06T07:37:35.634Z,7.47
2019-05-06T07:40:05.496Z,8.13
2019-05-06T07:42:42.553Z,7.03
2019-05-06T07:45:22.015Z,8.23
2019-05-06T07:47:55.197Z,7.70
2019-05-06T07:50:24.524Z,6.53
2019-05-06T07:53:13.325Z,7.00
2019-05-06T07:55:42.679Z,8.15
2019-05-06T07:58:13.786Z,6.85
2019-05-06T08:00:42.929Z,6.67
2019-05-06T08:03:14.111Z,6.85
2019-05-06T08:05:55.194Z,7.78
2019-05-06T08:08:15.403Z,6.12
2019-05-06T08:10:44.698Z,6.70
2019-05-06T08:13:13.815Z,6.95
2019-05-06T08:15:44.075Z,5.83
2019-05-06T08:18:14.078Z,6.40
2019-05-06T08:20:43.608Z,6.05
2019-05-06T08:23:44.290Z,4.90
2019-05-06T08:26:17.255Z,6.10
2019-05-06T08:28:45.103Z,4.65
2019-05-06T08:31:16.446Z,3.90
2019-05-06T08:33:45.746Z,4.45
2019-05-06T08:36:22.589Z,4.37
2019-05-06T08:38:58.315Z,6.22
2019-05-06T08:41:28.268Z,5.17
2019-05-06T08:43:57.598Z,4.90
2019-05-06T08:46:27.315Z,4.40
2019-05-06T08:48:57.023Z,3.40
2019-05-06T08:51:45.455Z,5.60
2019-05-06T08:54:24.180Z,4.67
2019-05-06T08:56:53.275Z,5.73
2019-05-06T08:59:23.978Z,4.70
2019-05-06T09:01:54.009Z,4.17
2019-05-06T09:04:23.542Z,4.77
2019-05-06T09:06:53.593Z,5.13
2019-05-06T09:09:23.386Z,4.93
2019-05-06T09:11:53.682Z,4.30
2019-05-06T09:14:23.739Z,5.10
2019-05-06T09:16:54.225Z,4.40
2019-05-06T09:19:23.998Z,5.40
2019-05-06T09:21:53.610Z,6.40
2019-05-06T09:24:23.468Z,4.97
2019-05-06T09:27:02.967Z,4.70
2019-05-06T09:29:53.399Z,4.30
2019-05-06T09:32:35.648Z,4.37
2019-05-06T09:35:05.831Z,4.60
2019-05-06T09:37:35.101Z,5.27
2019-05-06T09:40:04.955Z,5.20
2019-05-06T09:42:34.259Z,5.50
2019-05-06T09:45:03.294Z,5.53
2019-05-06T09:47:46.994Z,5.50
2019-05-06T09:50:18.791Z,6.10
2019-05-06T09:52:47.712Z,5.73
2019-05-06T09:55:35.043Z,5.83
2019-05-06T09:58:05.752Z,6.40
2019-05-06T10:00:38.779Z,5.33
2019-05-06T10:03:08.033Z,5.23
2019-05-06T10:05:36.951Z,5.80
2019-05-06T10:08:06.011Z,4.27
2019-05-06T10:10:35.050Z,4.93
2019-05-06T10:13:04.290Z,3.87
2019-05-06T10:15:33.608Z,4.50
2019-05-06T10:18:09.069Z,3.97
2019-05-06T10:20:43.037Z,5.43
2019-05-06T10:23:12.752Z,5.23
2019-05-06T10:25:43.762Z,4.90
2019-05-06T10:28:33.628Z,5.30
2019-05-06T10:31:04.895Z,6.40
2019-05-06T10:33:34.429Z,5.30
2019-05-06T10:36:04.366Z,5.63
2019-05-06T10:38:57.575Z,7.67
2019-05-06T10:41:32.773Z,5.37
2019-05-06T10:44:17.234Z,6.17
2019-05-06T10:46:46.206Z,6.17
2019-05-06T10:49:15.293Z,5.50
2019-05-06T10:51:50.347Z,6.97
2019-05-06T10:54:20.035Z,6.70
2019-05-06T10:57:02.275Z,8.30
2019-05-06T10:59:32.708Z,8.93
2019-05-06T11:02:12.965Z,8.37
2019-05-06T11:04:42.696Z,8.67
2019-05-06T11:07:21.534Z,8.00
2019-05-06T11:09:43.543Z,8.70
2019-05-06T11:12:12.977Z,8.87
2019-05-06T11:14:42.162Z,9.57
2019-05-06T11:17:12.482Z,7.50
2019-05-06T11:19:42.782Z,9.27
2019-05-06T11:22:12.946Z,10.50
2019-05-06T11:24:42.627Z,10.03
2019-05-06T11:27:25.286Z,11.13
2019-05-06T11:29:46.518Z,11.93
2019-05-06T11:32:33.875Z,13.72
2019-05-06T11:35:08.237Z,16.63
2019-05-06T11:37:50.126Z,18.90
2019-05-06T11:40:17.223Z,20.32
2019-05-06T11:42:46.603Z,20.60
2019-05-06T11:45:16.356Z,21.05
2019-05-06T11:47:45.757Z,20.43
2019-05-06T11:50:15.313Z,20.17
2019-05-06T11:52:44.629Z,20.90
2019-05-06T11:55:27.908Z,19.47
2019-05-06T11:57:46.898Z,19.83
2019-05-06T12:00:20.358Z,18.90
2019-05-06T12:02:49.917Z,15.60
2019-05-06T12:05:19.757Z,17.00
2019-05-06T12:08:01.897Z,15.93
2019-05-06T12:10:22.341Z,17.97
2019-05-06T12:12:53.333Z,17.15
2019-05-06T12:15:23.052Z,17.12
2019-05-06T12:17:53.462Z,16.10
2019-05-06T12:20:23.194Z,15.10
2019-05-06T12:22:52.880Z,15.57
2019-05-06T12:25:23.793Z,16.57
2019-05-06T12:27:53.395Z,14.10
2019-05-06T12:30:24.334Z,12.77
2019-05-06T12:33:32.883Z,12.07
2019-05-06T12:36:04.369Z,11.50
2019-05-06T12:38:35.460Z,11.23
2019-05-06T12:41:04.567Z,12.77
2019-05-06T12:43:45.568Z,10.40
2019-05-06T12:46:28.052Z,12.10
2019-05-06T12:48:57.495Z,9.40
2019-05-06T12:51:26.892Z,8.53
2019-05-06T12:53:56.001Z,8.83
2019-05-06T12:56:25.452Z,7.90
2019-05-06T12:58:54.739Z,6.87
2019-05-06T13:01:23.878Z,7.50
2019-05-06T13:03:53.606Z,6.67
2019-05-06T13:06:26.323Z,6.37
2019-05-06T13:09:01.365Z,5.57
2019-05-06T13:11:24.898Z,7.23
2019-05-06T13:14:00.079Z,6.80
2019-05-06T13:16:24.519Z,6.93
2019-05-06T13:18:54.912Z,7.30
2019-05-06T13:21:24.156Z,7.93
2019-05-06T13:23:56.977Z,8.00
2019-05-06T13:26:26.100Z,6.93
2019-05-06T13:28:59.088Z,7.07
2019-05-06T13:31:28.093Z,5.33
2019-05-06T13:34:10.825Z,6.40
2019-05-06T13:36:42.566Z,6.03
2019-05-06T13:39:14.975Z,6.17
2019-05-06T13:41:42.166Z,6.60
2019-05-06T13:44:13.376Z,7.37
2019-05-06T13:46:48.317Z,6.53
2019-05-06T13:49:25.560Z,5.43
2019-05-06T13:52:04.512Z,5.27
2019-05-06T13:54:33.910Z,6.00
2019-05-06T13:57:03.198Z,6.50
2019-05-06T13:59:35.281Z,7.17
2019-05-06T14:02:16.147Z,7.77
2019-05-06T14:04:44.530Z,9.20
2019-05-06T14:07:13.700Z,9.77
2019-05-06T14:09:43.603Z,8.73
2019-05-06T14:12:12.866Z,10.70
2019-05-06T14:14:43.178Z,11.50
2019-05-06T14:17:12.908Z,10.00
2019-05-06T14:19:42.894Z,10.30
2019-05-06T14:22:12.811Z,9.03
2019-05-06T14:24:46.058Z,10.20
2019-05-06T14:27:18.122Z,8.33
2019-05-06T14:30:09.246Z,11.10
2019-05-06T14:32:38.139Z,8.30
2019-05-06T14:35:07.159Z,9.23
2019-05-06T14:37:36.060Z,10.08
2019-05-06T14:40:07.434Z,9.35
2019-05-06T14:42:36.396Z,8.90
2019-05-06T14:45:06.052Z,9.63
2019-05-06T14:47:37.482Z,9.13
2019-05-06T14:50:07.057Z,10.60
2019-05-06T14:52:36.066Z,10.20
2019-05-06T14:55:12.613Z,10.70
2019-05-06T14:57:42.932Z,9.20
2019-05-06T15:00:15.247Z,6.97
2019-05-06T15:02:44.529Z,9.97
2019-05-06T15:05:14.002Z,11.28
2019-05-06T15:07:42.982Z,11.12
2019-05-06T15:10:20.419Z,11.90
2019-05-06T15:12:43.107Z,12.40
2019-05-06T15:15:12.384Z,13.17
2019-05-06T15:17:43.033Z,12.70
2019-05-06T15:20:12.648Z,12.03
2019-05-06T15:22:42.116Z,13.60
2019-05-06T15:25:12.957Z,12.60
2019-05-06T15:27:42.671Z,11.53
2019-05-06T15:30:17.331Z,11.80
2019-05-06T15:32:46.283Z,10.60
2019-05-06T15:35:22.291Z,10.43
2019-05-06T15:37:54.545Z,10.05
2019-05-06T15:40:31.818Z,9.40
2019-05-06T15:42:54.143Z,10.47
2019-05-06T15:45:23.138Z,8.03
2019-05-06T15:47:52.451Z,8.33
2019-05-06T15:50:23.044Z,9.17
2019-05-06T15:52:53.811Z,10.43
2019-05-06T15:55:23.260Z,9.48
2019-05-06T15:57:52.748Z,9.18
2019-05-06T16:00:23.013Z,7.90
2019-05-06T16:02:52.972Z,7.87
2019-05-06T16:05:26.357Z,8.03
2019-05-06T16:07:53.387Z,8.00
2019-05-06T16:10:23.611Z,9.13
2019-05-06T16:12:53.594Z,9.10
2019-05-06T16:15:24.930Z,9.07
2019-05-06T16:17:54.181Z,9.23
2019-05-06T16:20:23.484Z,8.53
2019-05-06T16:22:59.524Z,9.13
2019-05-06T16:25:28.491Z,9.95
2019-05-06T16:27:57.842Z,8.33
2019-05-06T16:30:27.225Z,8.90
2019-05-06T16:32:56.418Z,8.78
2019-05-06T16:35:25.754Z,7.47
2019-05-06T16:37:55.156Z,6.08
2019-05-06T16:40:24.927Z,6.97
2019-05-06T16:42:54.732Z,7.08
2019-05-06T16:45:24.027Z,6.20
2019-05-06T16:47:53.241Z,6.65
2019-05-06T16:50:22.839Z,6.60
2019-05-06T16:52:52.748Z,5.70
2019-05-06T16:55:27.477Z,6.45
2019-05-06T16:58:02.513Z,6.30
2019-05-06T17:00:33.637Z,5.10
2019-05-06T17:03:24.705Z,4.92
2019-05-06T17:06:23.087Z,4.62
2019-05-06T17:08:52.940Z,4.42
2019-05-06T17:11:28.109Z,4.83
2019-05-06T17:13:52.919Z,4.55
2019-05-06T17:16:22.197Z,4.97
2019-05-06T17:18:56.284Z,5.17
2019-05-06T17:21:22.350Z,5.10
2019-05-06T17:23:52.322Z,5.03
2019-05-06T17:26:22.473Z,5.97
2019-05-06T17:28:59.844Z,6.60
2019-05-06T17:31:39.131Z,5.50
2019-05-06T17:34:09.412Z,5.75
2019-05-06T17:36:41.983Z,6.00
2019-05-06T17:39:11.140Z,6.08
2019-05-06T17:41:45.901Z,7.12
2019-05-06T17:44:12.108Z,7.25
2019-05-06T17:47:03.195Z,5.92
2019-05-06T17:49:32.960Z,6.47
2019-05-06T17:52:42.445Z,5.67
2019-05-06T17:55:29.337Z,5.62
2019-05-06T17:58:45.689Z,6.65
2019-05-06T18:02:24.098Z,7.10
2019-05-06T18:05:24.394Z,7.00
2019-05-06T18:08:26.996Z,6.78
2019-05-06T18:11:06.438Z,6.15
2019-05-06T18:13:35.360Z,6.50
2019-05-06T18:16:04.462Z,6.78
2019-05-06T18:18:33.831Z,9.20
2019-05-06T18:21:02.889Z,8.48
2019-05-06T18:23:33.586Z,7.10
2019-05-06T18:26:03.247Z,7.12
2019-05-06T18:28:32.815Z,7.97
2019-05-06T18:31:03.163Z,8.70
2019-05-06T18:33:32.991Z,7.42
2019-05-06T18:36:02.998Z,8.20
2019-05-06T18:38:33.776Z,7.53
2019-05-06T18:41:03.249Z,8.65
2019-05-06T18:43:33.145Z,7.67
2019-05-06T18:46:02.975Z,8.60
2019-05-06T18:48:35.097Z,7.47
2019-05-06T18:51:03.254Z,8.23
2019-05-06T18:53:33.262Z,9.53
2019-05-06T18:56:05.943Z,7.15
2019-05-06T18:58:35.036Z,8.25
2019-05-06T19:01:04.538Z,8.45
2019-05-06T19:03:48.874Z,8.35
2019-05-06T19:06:18.268Z,8.00
2019-05-06T19:08:53.096Z,8.95
2019-05-06T19:11:22.321Z,7.90
2019-05-06T19:13:52.706Z,9.40
2019-05-06T19:16:22.526Z,8.95
2019-05-06T19:18:52.338Z,8.98
2019-05-06T19:21:24.304Z,8.53
2019-05-06T19:23:54.779Z,9.33
2019-05-06T19:26:23.522Z,8.98
2019-05-06T19:28:52.857Z,10.32
2019-05-06T19:31:22.791Z,10.00
2019-05-06T19:33:52.667Z,10.65
2019-05-06T19:36:23.532Z,10.82
2019-05-06T19:38:52.884Z,10.28
2019-05-06T19:41:22.343Z,9.88
2019-05-06T19:43:52.365Z,10.80
2019-05-06T19:46:21.657Z,9.45
2019-05-06T19:48:52.429Z,11.45
2019-05-06T19:51:22.486Z,10.55
2019-05-06T19:53:52.058Z,9.60
2019-05-06T19:56:23.184Z,11.05
2019-05-06T19:58:52.583Z,11.33
2019-05-06T20:01:22.881Z,10.38
2019-05-06T20:03:52.633Z,11.05
2019-05-06T20:06:41.107Z,11.65
2019-05-06T20:09:36.489Z,12.47
2019-05-06T20:12:08.659Z,11.70
2019-05-06T20:14:37.606Z,11.73
2019-05-06T20:17:06.718Z,12.73
2019-05-06T20:19:35.716Z,12.70
2019-05-06T20:22:04.973Z,12.73
2019-05-06T20:24:33.844Z,14.05
2019-05-06T20:27:03.115Z,12.65
2019-05-06T20:29:35.212Z,13.62
2019-05-06T20:32:03.632Z,12.80
2019-05-06T20:34:33.253Z,13.93
2019-05-06T20:37:02.866Z,12.00
2019-05-06T20:39:32.983Z,13.30
2019-05-06T20:42:02.867Z,12.00
2019-05-06T20:44:32.570Z,13.20
2019-05-06T20:47:03.112Z,13.38
2019-05-06T20:49:33.315Z,12.65
2019-05-06T20:52:02.661Z,12.93
2019-05-06T20:54:32.518Z,12.00
2019-05-06T20:57:02.554Z,12.98
2019-05-06T20:59:32.679Z,12.53
2019-05-06T21:02:03.064Z,12.73
2019-05-06T21:04:32.765Z,13.15
2019-05-06T21:07:02.778Z,12.30
2019-05-06T21:09:32.359Z,11.93
2019-05-06T21:12:01.838Z,13.75
2019-05-06T21:14:32.386Z,13.10
2019-05-06T21:17:02.628Z,12.68
2019-05-06T21:19:33.263Z,12.68
2019-05-06T21:22:02.892Z,12.63
2019-05-06T21:24:35.727Z,13.10
2019-05-06T21:27:03.300Z,13.22
2019-05-06T21:29:32.993Z,12.10
2019-05-06T21:32:03.012Z,13.35
2019-05-06T21:34:32.833Z,13.72
2019-05-06T21:37:03.180Z,13.35
2019-05-06T21:39:32.883Z,13.65
2019-05-06T21:42:02.461Z,12.40
2019-05-06T21:44:34.730Z,13.45
2019-05-06T21:47:04.647Z,13.35
2019-05-06T21:49:34.079Z,12.33
2019-05-06T21:52:03.484Z,13.08
2019-05-06T21:54:32.931Z,13.80
2019-05-06T21:57:03.022Z,14.50
2019-05-06T21:59:32.510Z,13.10
2019-05-06T22:02:02.317Z,13.90
2019-05-06T22:04:32.719Z,13.50
2019-05-06T22:07:03.107Z,13.95
2019-05-06T22:09:32.699Z,14.38
2019-05-06T22:12:02.445Z,13.90
2019-05-06T22:14:32.576Z,14.25
2019-05-06T22:17:03.881Z,13.10
2019-05-06T22:19:32.533Z,12.50
2019-05-06T22:22:14.633Z,14.50
2019-05-06T22:24:55.187Z,13.45
2019-05-06T22:27:21.981Z,13.30
2019-05-06T22:29:52.232Z,13.98
2019-05-06T22:32:23.145Z,12.98
2019-05-06T22:34:52.173Z,14.35
2019-05-06T22:37:22.098Z,14.55
2019-05-06T22:39:52.746Z,16.12
2019-05-06T22:42:22.567Z,13.93
2019-05-06T22:44:52.795Z,13.88
2019-05-06T22:47:23.081Z,15.32
2019-05-06T22:49:54.286Z,15.23
2019-05-06T22:52:23.082Z,15.15
2019-05-06T22:54:52.760Z,15.15
2019-05-06T22:57:23.538Z,15.80
2019-05-06T22:59:52.587Z,14.33
2019-05-06T23:02:27.752Z,14.65
2019-05-06T23:04:59.024Z,14.13
2019-05-06T23:07:28.113Z,14.07
2019-05-06T23:09:57.213Z,13.75
2019-05-06T23:12:26.173Z,13.10
2019-05-06T23:14:55.355Z,13.80
2019-05-06T23:17:24.478Z,12.70
2019-05-06T23:19:53.536Z,12.75
2019-05-06T23:22:22.836Z,13.75
2019-05-06T23:24:54.022Z,13.88
2019-05-06T23:27:23.371Z,13.13
2019-05-06T23:29:52.717Z,13.75
2019-05-06T23:32:22.942Z,12.63
2019-05-06T23:34:52.432Z,13.05
2019-05-06T23:37:23.059Z,12.93
2019-05-06T23:40:33.165Z,12.35
2019-05-06T23:43:38.222Z,12.95
2019-05-06T23:46:43.016Z,13.25
2019-05-06T23:49:48.137Z,14.03
2019-05-06T23:52:53.264Z,13.38
2019-05-06T23:55:58.235Z,13.03
2019-05-06T23:58:25.755Z,12.88
